Time;durP1;ratioP1;P1;durP2;ratioP2;P2;SDS_P1;SDS_P2;PMS_P1;PMS_P2;Temp;Humidity;BMP_temperature;BMP_pressure;BME280_temperature;BME280_humidity;BME280_pressure;Samples;Min_cycle;Max_cycle;Signal;HPM_P1;HPM_P2
2022/04/15 00:01:24;0.00;0.00;0.62;0.00;0.00;0.62;2.40;2.10;;;28.50;25.10;;;;;;2259953;61;20788;-57
2022/04/15 00:04:10;0.00;0.00;0.62;0.00;0.00;0.62;2.23;1.90;;;28.40;25.00;;;;;;2261153;61;20361;-63
2022/04/15 00:06:54;0.00;0.00;0.62;0.00;0.00;0.62;2.90;1.70;;;28.40;25.00;;;;;;2257535;61;20889;-60
2022/04/15 00:09:39;0.00;0.00;0.62;0.00;0.00;0.62;4.20;2.40;;;28.40;25.00;;;;;;2260393;61;20980;-60
2022/04/15 00:12:28;0.00;0.00;0.62;0.00;0.00;0.62;3.63;2.20;;;28.40;25.00;;;;;;2258106;61;20400;-62
2022/04/15 00:15:14;0.00;0.00;0.62;0.00;0.00;0.62;3.13;2.53;;;28.40;25.00;;;;;;2259747;61;20372;-63
2022/04/15 00:17:59;0.00;0.00;0.62;0.00;0.00;0.62;3.97;2.40;;;28.30;24.90;;;;;;2260599;61;20904;-59
2022/04/15 00:20:45;0.00;0.00;0.62;0.00;0.00;0.62;3.60;2.37;;;28.30;24.90;;;;;;2260971;61;20792;-60
2022/04/15 00:23:31;0.00;0.00;0.62;0.00;0.00;0.62;3.40;3.10;;;28.30;24.90;;;;;;2259978;61;20361;-63
2022/04/15 00:26:15;0.00;0.00;0.62;0.00;0.00;0.62;3.43;2.83;;;28.30;25.00;;;;;;2260846;61;20432;-61
2022/04/15 00:29:00;0.00;0.00;0.62;0.00;0.00;0.62;3.60;2.90;;;28.30;25.00;;;;;;2260203;61;20474;-63
2022/04/15 00:31:45;0.00;0.00;0.62;0.00;0.00;0.62;4.23;3.07;;;28.30;25.50;;;;;;2254550;61;20385;-58
2022/04/15 00:34:29;0.00;0.00;0.62;0.00;0.00;0.62;3.00;2.67;;;28.30;24.90;;;;;;2260763;61;20932;-61
2022/04/15 00:37:17;0.00;0.00;0.62;0.00;0.00;0.62;4.07;2.87;;;28.20;24.90;;;;;;2259382;61;20376;-61
2022/04/15 00:40:02;0.00;0.00;0.62;0.00;0.00;0.62;3.57;2.90;;;28.20;24.90;;;;;;2257220;61;20365;-58
2022/04/15 00:42:47;0.00;0.00;0.62;0.00;0.00;0.62;3.37;3.00;;;28.20;24.90;;;;;;2260713;61;20925;-61
2022/04/15 00:45:31;0.00;0.00;0.62;0.00;0.00;0.62;3.70;2.47;;;28.20;24.90;;;;;;2259300;61;20361;-63
2022/04/15 00:48:19;0.00;0.00;0.62;0.00;0.00;0.62;3.27;2.97;;;28.10;24.80;;;;;;2257216;61;20430;-61
2022/04/15 00:51:05;0.00;0.00;0.62;0.00;0.00;0.62;3.23;2.77;;;28.10;24.70;;;;;;2260583;61;20408;-63
2022/04/15 00:53:53;0.00;0.00;0.62;0.00;0.00;0.62;3.10;2.47;;;28.10;24.70;;;;;;2260000;61;20368;-66
2022/04/15 00:56:41;0.00;0.00;0.62;0.00;0.00;0.62;3.60;3.30;;;28.10;24.70;;;;;;2260102;61;20373;-60
2022/04/15 00:59:26;0.00;0.00;0.62;0.00;0.00;0.62;3.60;2.90;;;28.10;24.50;;;;;;2259022;61;20380;-59
2022/04/15 01:02:14;0.00;0.00;0.62;0.00;0.00;0.62;3.13;2.40;;;28.10;24.50;;;;;;2260791;61;20381;-61
2022/04/15 01:05:02;0.00;0.00;0.62;0.00;0.00;0.62;4.10;2.70;;;28.00;24.50;;;;;;2260478;61;20381;-62
2022/04/15 01:07:49;0.00;0.00;0.62;0.00;0.00;0.62;3.87;2.60;;;28.00;24.50;;;;;;2259451;61;20944;-60
2022/04/15 01:10:36;0.00;0.00;0.62;0.00;0.00;0.62;5.07;2.67;;;27.90;24.40;;;;;;2260533;61;20361;-63
2022/04/15 01:13:23;0.00;0.00;0.62;0.00;0.00;0.62;3.60;3.03;;;27.90;24.40;;;;;;2260086;61;20365;-61
2022/04/15 01:16:08;0.00;0.00;0.62;0.00;0.00;0.62;3.00;2.10;;;27.90;24.40;;;;;;2260226;61;20416;-61
2022/04/15 01:18:53;0.00;0.00;0.62;0.00;0.00;0.62;3.00;2.57;;;27.90;24.50;;;;;;2260506;61;20389;-60
2022/04/15 01:21:38;0.00;0.00;0.62;0.00;0.00;0.62;3.30;2.60;;;27.80;24.50;;;;;;2259268;61;20385;-63
2022/04/15 01:24:24;0.00;0.00;0.62;0.00;0.00;0.62;2.77;2.40;;;27.80;24.40;;;;;;2260803;61;20360;-61
2022/04/15 01:27:10;0.00;0.00;0.62;0.00;0.00;0.62;2.57;2.30;;;27.80;24.50;;;;;;2260451;61;20811;-59
2022/04/15 01:29:54;0.00;0.00;0.62;0.00;0.00;0.62;2.70;2.50;;;27.80;24.50;;;;;;2258844;61;20481;-62
2022/04/15 01:32:39;0.00;0.00;0.62;0.00;0.00;0.62;3.87;2.53;;;27.80;24.50;;;;;;2260708;61;20786;-58
2022/04/15 01:35:24;0.00;0.00;0.62;0.00;0.00;0.62;4.70;1.90;;;27.80;24.50;;;;;;2260352;61;20814;-62
2022/04/15 01:38:14;0.00;0.00;0.62;0.00;0.00;0.62;3.07;2.60;;;27.70;24.40;;;;;;2259601;61;20438;-63
2022/04/15 01:41:00;0.00;0.00;0.62;0.00;0.00;0.62;3.20;2.20;;;27.70;24.40;;;;;;2260477;61;20413;-63
2022/04/15 01:43:44;0.00;0.00;0.62;0.00;0.00;0.62;3.80;2.00;;;27.70;24.40;;;;;;2259542;61;20389;-64
2022/04/15 01:46:29;0.00;0.00;0.62;0.00;0.00;0.62;3.43;2.03;;;27.70;24.40;;;;;;2264722;61;20352;-64
2022/04/15 01:49:13;0.00;0.00;0.62;0.00;0.00;0.62;2.10;1.60;;;27.60;24.40;;;;;;2264207;61;20438;-60
2022/04/15 01:51:58;0.00;0.00;0.62;0.00;0.00;0.62;3.20;1.80;;;27.60;24.40;;;;;;2263455;61;20464;-58
2022/04/15 01:54:42;0.00;0.00;0.62;0.00;0.00;0.62;2.33;2.13;;;27.60;24.40;;;;;;2264687;61;20407;-62
2022/04/15 01:57:29;0.00;0.00;0.62;0.00;0.00;0.62;3.50;1.97;;;27.50;24.40;;;;;;2261141;61;20927;-64
2022/04/15 02:00:14;0.00;0.00;0.62;0.00;0.00;0.62;1.93;1.73;;;27.60;24.40;;;;;;2260715;61;20352;-59
2022/04/15 02:02:58;0.00;0.00;0.62;0.00;0.00;0.62;2.30;1.60;;;27.50;24.40;;;;;;2264507;61;20364;-62
2022/04/15 02:05:43;0.00;0.00;0.62;0.00;0.00;0.62;2.40;1.80;;;27.50;24.40;;;;;;2263779;61;20491;-58
2022/04/15 02:08:27;0.00;0.00;0.62;0.00;0.00;0.62;2.97;1.90;;;27.50;24.40;;;;;;2264189;61;20387;-59
2022/04/15 02:11:12;0.00;0.00;0.62;0.00;0.00;0.62;2.10;1.90;;;27.50;24.50;;;;;;2261125;61;20383;-58
2022/04/15 02:13:58;0.00;0.00;0.62;0.00;0.00;0.62;1.80;1.40;;;27.40;24.40;;;;;;2263527;61;20791;-60
2022/04/15 02:16:45;0.00;0.00;0.62;0.00;0.00;0.62;3.70;1.60;;;27.40;24.40;;;;;;2261182;61;20364;-62
2022/04/15 02:19:30;0.00;0.00;0.62;0.00;0.00;0.62;2.80;1.73;;;27.40;24.40;;;;;;2264275;61;20818;-61
2022/04/15 02:22:14;0.00;0.00;0.62;0.00;0.00;0.62;1.63;1.50;;;27.40;24.30;;;;;;2263878;61;20831;-61
2022/04/15 02:25:00;0.00;0.00;0.62;0.00;0.00;0.62;1.80;1.53;;;27.40;24.30;;;;;;2264559;61;20742;-63
2022/04/15 02:27:45;0.00;0.00;0.62;0.00;0.00;0.62;2.30;1.80;;;27.40;24.30;;;;;;2263646;61;20407;-59
2022/04/15 02:30:31;0.00;0.00;0.62;0.00;0.00;0.62;1.67;1.30;;;27.40;24.30;;;;;;2264377;61;20879;-62
2022/04/15 02:33:16;0.00;0.00;0.62;0.00;0.00;0.62;3.40;1.97;;;27.30;24.30;;;;;;2264467;61;20359;-58
2022/04/15 02:36:01;0.00;0.00;0.62;0.00;0.00;0.62;2.23;1.73;;;27.30;24.30;;;;;;2263522;61;20938;-63
2022/04/15 02:38:46;0.00;0.00;0.62;0.00;0.00;0.62;1.97;1.60;;;27.30;24.20;;;;;;2260909;61;20359;-58
2022/04/15 02:41:31;0.00;0.00;0.62;0.00;0.00;0.62;3.30;1.63;;;27.30;24.30;;;;;;2264344;61;20429;-62
2022/04/15 02:44:15;0.00;0.00;0.62;0.00;0.00;0.62;2.20;1.47;;;27.20;24.30;;;;;;2263535;61;20395;-62
2022/04/15 02:47:01;0.00;0.00;0.62;0.00;0.00;0.62;2.20;1.53;;;27.20;24.30;;;;;;2264526;61;20356;-60
2022/04/15 02:49:46;0.00;0.00;0.62;0.00;0.00;0.62;2.17;1.43;;;27.20;24.30;;;;;;2263493;61;20388;-61
2022/04/15 02:52:33;0.00;0.00;0.62;0.00;0.00;0.62;2.20;1.80;;;27.20;24.30;;;;;;2264267;61;20423;-61
2022/04/15 02:55:18;0.00;0.00;0.62;0.00;0.00;0.62;1.90;1.60;;;27.10;24.30;;;;;;2264157;61;20438;-59
2022/04/15 02:58:03;0.00;0.00;0.62;0.00;0.00;0.62;1.70;1.40;;;27.20;24.40;;;;;;2263021;61;20395;-61
2022/04/15 03:00:48;0.00;0.00;0.62;0.00;0.00;0.62;2.10;1.30;;;27.10;24.30;;;;;;2264182;61;21009;-60
2022/04/15 03:03:34;0.00;0.00;0.62;0.00;0.00;0.62;2.47;1.57;;;27.10;24.90;;;;;;2264430;61;20368;-59
2022/04/15 03:06:19;0.00;0.00;0.62;0.00;0.00;0.62;2.47;1.60;;;27.10;24.40;;;;;;2260214;61;20364;-61
2022/04/15 03:09:04;0.00;0.00;0.62;0.00;0.00;0.62;2.10;1.40;;;27.10;24.40;;;;;;2264038;61;20388;-60
2022/04/15 03:11:49;0.00;0.00;0.62;0.00;0.00;0.62;2.33;1.60;;;27.10;24.70;;;;;;2263948;61;20827;-65
2022/04/15 03:14:34;0.00;0.00;0.62;0.00;0.00;0.62;2.00;1.40;;;27.00;24.30;;;;;;2264260;61;20956;-61
2022/04/15 03:17:18;0.00;0.00;0.62;0.00;0.00;0.62;2.90;1.40;;;27.00;24.30;;;;;;2264317;61;20388;-63
2022/04/15 03:20:06;0.00;0.00;0.62;0.00;0.00;0.62;2.40;1.07;;;27.00;24.30;;;;;;2262673;61;20363;-62
2022/04/15 03:22:51;0.00;0.00;0.62;0.00;0.00;0.62;1.83;1.20;;;27.00;24.30;;;;;;2261628;61;20532;-60
2022/04/15 03:25:35;0.00;0.00;0.62;0.00;0.00;0.62;1.60;1.13;;;27.00;24.30;;;;;;2265160;61;20433;-60
2022/04/15 03:28:20;0.00;0.00;0.62;0.00;0.00;0.62;3.07;1.13;;;27.00;24.30;;;;;;2263538;61;20376;-63
2022/04/15 03:31:05;0.00;0.00;0.62;0.00;0.00;0.62;1.90;1.43;;;27.00;24.30;;;;;;2265108;61;20970;-63
2022/04/15 03:33:49;0.00;0.00;0.62;0.00;0.00;0.62;2.00;1.27;;;26.90;24.30;;;;;;2264776;61;20407;-61
2022/04/15 03:36:35;0.00;0.00;0.62;0.00;0.00;0.62;1.67;1.27;;;26.90;24.30;;;;;;2264610;61;20399;-60
2022/04/15 03:39:20;0.00;0.00;0.62;0.00;0.00;0.62;1.70;1.10;;;26.90;24.80;;;;;;2264611;61;20506;-60
2022/04/15 03:42:07;0.00;0.00;0.62;0.00;0.00;0.62;2.17;1.30;;;26.90;24.30;;;;;;2264255;61;20383;-61
2022/04/15 03:44:51;0.00;0.00;0.62;0.00;0.00;0.62;3.30;1.50;;;26.90;24.30;;;;;;2264765;61;20897;-64
2022/04/15 03:47:35;0.00;0.00;0.62;0.00;0.00;0.62;1.90;1.33;;;26.90;24.30;;;;;;2265300;61;20430;-61
2022/04/15 03:50:21;0.00;0.00;0.62;0.00;0.00;0.62;1.70;1.30;;;26.90;24.30;;;;;;2263607;61;20368;-57
2022/04/15 03:53:08;0.00;0.00;0.62;0.00;0.00;0.62;2.83;1.50;;;26.80;24.30;;;;;;2265141;61;20394;-63
2022/04/15 03:55:53;0.00;0.00;0.62;0.00;0.00;0.62;2.00;1.50;;;26.80;24.30;;;;;;2265256;61;20364;-63
2022/04/15 03:58:38;0.00;0.00;0.62;0.00;0.00;0.62;1.77;1.53;;;26.80;24.30;;;;;;2263766;61;20403;-63
2022/04/15 04:01:24;0.00;0.00;0.62;0.00;0.00;0.62;1.80;1.57;;;26.80;24.30;;;;;;2265041;61;20933;-61
2022/04/15 04:04:09;0.00;0.00;0.62;0.00;0.00;0.62;2.33;1.47;;;26.80;24.30;;;;;;2264017;61;20807;-63
2022/04/15 04:06:54;0.00;0.00;0.62;0.00;0.00;0.62;2.53;1.93;;;26.80;24.30;;;;;;2264835;61;20352;-61
2022/04/15 04:09:40;0.00;0.00;0.62;0.00;0.00;0.62;2.17;1.73;;;26.80;24.30;;;;;;2264524;61;20388;-60
2022/04/15 04:12:25;0.00;0.00;0.62;0.00;0.00;0.62;1.70;1.37;;;26.70;24.30;;;;;;2263418;61;20391;-63
2022/04/15 04:15:12;0.00;0.00;0.62;0.00;0.00;0.62;1.87;1.60;;;26.70;24.30;;;;;;2264980;61;20364;-61
2022/04/15 04:17:57;0.00;0.00;0.62;0.00;0.00;0.62;2.77;2.10;;;26.70;24.30;;;;;;2261205;61;20415;-61
2022/04/15 04:20:42;0.00;0.00;0.62;0.00;0.00;0.62;2.40;1.60;;;26.60;24.20;;;;;;2263961;61;20360;-60
2022/04/15 04:23:26;0.00;0.00;0.62;0.00;0.00;0.62;2.37;1.67;;;26.60;24.20;;;;;;2265027;61;20367;-57
2022/04/15 04:26:12;0.00;0.00;0.62;0.00;0.00;0.62;1.90;1.63;;;26.60;24.20;;;;;;2264173;61;20908;-64
2022/04/15 04:28:57;0.00;0.00;0.62;0.00;0.00;0.62;2.60;1.70;;;26.60;24.20;;;;;;2264294;61;20380;-60
2022/04/15 04:31:41;0.00;0.00;0.62;0.00;0.00;0.62;2.10;1.87;;;26.60;24.20;;;;;;2264839;61;20380;-59
2022/04/15 04:34:25;0.00;0.00;0.62;0.00;0.00;0.62;2.37;1.80;;;26.50;24.20;;;;;;2260633;61;20355;-61
2022/04/15 04:37:10;0.00;0.00;0.62;0.00;0.00;0.62;2.53;1.70;;;26.60;24.20;;;;;;2264836;61;20884;-55
2022/04/15 04:39:55;0.00;0.00;0.62;0.00;0.00;0.62;2.43;1.67;;;26.50;24.20;;;;;;2264495;61;20663;-60
2022/04/15 04:42:41;0.00;0.00;0.62;0.00;0.00;0.62;2.57;1.70;;;26.50;24.20;;;;;;2260720;61;20420;-64
2022/04/15 04:45:26;0.00;0.00;0.62;0.00;0.00;0.62;1.90;1.40;;;26.50;24.20;;;;;;2261706;61;20364;-62
2022/04/15 04:48:11;0.00;0.00;0.62;0.00;0.00;0.62;3.97;1.67;;;26.50;24.20;;;;;;2260808;61;20364;-61
2022/04/15 04:50:55;0.00;0.00;0.62;0.00;0.00;0.62;1.83;1.30;;;26.40;24.10;;;;;;2264493;61;20380;-59
2022/04/15 04:53:40;0.00;0.00;0.62;0.00;0.00;0.62;2.27;1.60;;;26.40;24.20;;;;;;2264724;61;20939;-63
2022/04/15 04:56:24;0.00;0.00;0.62;0.00;0.00;0.62;1.60;1.30;;;26.40;24.20;;;;;;2263740;61;20444;-63
2022/04/15 04:59:10;0.00;0.00;0.62;0.00;0.00;0.62;1.60;1.37;;;26.30;24.10;;;;;;2261340;61;20376;-60
2022/04/15 05:01:55;0.00;0.00;0.62;0.00;0.00;0.62;2.13;1.67;;;26.30;24.10;;;;;;2264672;61;20550;-61
2022/04/15 05:04:40;0.00;0.00;0.62;0.00;0.00;0.62;2.53;1.50;;;26.30;24.10;;;;;;2263648;61;20764;-59
2022/04/15 05:07:25;0.00;0.00;0.62;0.00;0.00;0.62;2.27;1.70;;;26.30;24.10;;;;;;2264677;61;20355;-60
2022/04/15 05:10:09;0.00;0.00;0.62;0.00;0.00;0.62;2.00;1.30;;;26.20;24.10;;;;;;2263975;61;20387;-63
2022/04/15 05:12:54;0.00;0.00;0.62;0.00;0.00;0.62;1.80;1.47;;;26.20;24.10;;;;;;2264161;61;20352;-61
2022/04/15 05:15:40;0.00;0.00;0.62;0.00;0.00;0.62;2.30;1.90;;;26.20;24.10;;;;;;2264642;61;20892;-60
2022/04/15 05:18:24;0.00;0.00;0.62;0.00;0.00;0.62;2.50;1.70;;;26.20;24.10;;;;;;2263220;61;20364;-66
2022/04/15 05:21:09;0.00;0.00;0.62;0.00;0.00;0.62;1.97;1.60;;;26.20;24.10;;;;;;2261263;61;20501;-59
2022/04/15 05:23:53;0.00;0.00;0.62;0.00;0.00;0.62;2.20;1.70;;;26.10;24.10;;;;;;2264780;61;20462;-58
2022/04/15 05:26:38;0.00;0.00;0.62;0.00;0.00;0.62;2.07;1.77;;;26.10;24.10;;;;;;2263417;61;20498;-63
2022/04/15 05:29:23;0.00;0.00;0.62;0.00;0.00;0.62;2.37;1.63;;;26.10;24.10;;;;;;2264363;61;20938;-63
2022/04/15 05:32:09;0.00;0.00;0.62;0.00;0.00;0.62;1.73;1.57;;;26.10;24.20;;;;;;2264602;61;20388;-64
2022/04/15 05:34:54;0.00;0.00;0.62;0.00;0.00;0.62;2.00;1.80;;;26.10;24.20;;;;;;2260751;61;20402;-60
2022/04/15 05:37:38;0.00;0.00;0.62;0.00;0.00;0.62;2.87;2.00;;;26.10;24.20;;;;;;2264756;61;20907;-60
2022/04/15 05:40:23;0.00;0.00;0.62;0.00;0.00;0.62;2.00;1.70;;;26.10;24.70;;;;;;2263667;61;20360;-60
2022/04/15 05:43:07;0.00;0.00;0.62;0.00;0.00;0.62;2.30;1.70;;;26.10;24.20;;;;;;2264350;61;20439;-61
2022/04/15 05:45:52;0.00;0.00;0.62;0.00;0.00;0.62;1.60;1.43;;;26.00;24.10;;;;;;2264765;61;20360;-64
2022/04/15 05:48:38;0.00;0.00;0.62;0.00;0.00;0.62;1.70;1.57;;;26.00;24.10;;;;;;2263082;61;20427;-64
2022/04/15 05:51:23;0.00;0.00;0.62;0.00;0.00;0.62;1.70;1.50;;;26.00;24.20;;;;;;2264291;61;20384;-62
2022/04/15 05:54:07;0.00;0.00;0.62;0.00;0.00;0.62;2.67;2.47;;;26.00;24.20;;;;;;2264423;61;20403;-60
2022/04/15 05:56:52;0.00;0.00;0.62;0.00;0.00;0.62;2.23;1.90;;;26.00;24.20;;;;;;2263636;61;20406;-65
2022/04/15 05:59:37;0.00;0.00;0.62;0.00;0.00;0.62;2.13;1.90;;;26.00;24.20;;;;;;2260364;61;20380;-62
2022/04/15 06:02:22;0.00;0.00;0.62;0.00;0.00;0.62;2.73;1.80;;;26.00;24.20;;;;;;2263352;61;20380;-59
2022/04/15 06:05:09;0.00;0.00;0.62;0.00;0.00;0.62;2.53;1.97;;;26.00;24.10;;;;;;2264263;61;20414;-63
2022/04/15 06:07:54;0.00;0.00;0.62;0.00;0.00;0.62;2.43;1.67;;;26.00;24.10;;;;;;2264180;61;20395;-61
2022/04/15 06:10:38;0.00;0.00;0.62;0.00;0.00;0.62;2.50;1.80;;;26.00;24.10;;;;;;2263151;61;20539;-59
2022/04/15 06:13:25;0.00;0.00;0.62;0.00;0.00;0.62;1.90;1.60;;;26.00;24.10;;;;;;2261379;61;20359;-61
2022/04/15 06:16:10;0.00;0.00;0.62;0.00;0.00;0.62;2.80;2.27;;;26.00;24.10;;;;;;2264659;61;20410;-63
2022/04/15 06:18:55;0.00;0.00;0.62;0.00;0.00;0.62;4.20;2.03;;;26.00;24.10;;;;;;2262802;61;20448;-60
2022/04/15 06:21:41;0.00;0.00;0.62;0.00;0.00;0.62;2.27;1.93;;;25.90;24.10;;;;;;2261360;61;20786;-62
2022/04/15 06:24:25;0.00;0.00;0.62;0.00;0.00;0.62;2.40;1.80;;;25.90;24.10;;;;;;2260500;61;20815;-57
2022/04/15 06:27:10;0.00;0.00;0.62;0.00;0.00;0.62;2.20;1.90;;;25.90;24.10;;;;;;2260498;61;20364;-60
2022/04/15 06:29:55;0.00;0.00;0.62;0.00;0.00;0.62;2.67;1.73;;;25.90;24.10;;;;;;2260510;61;20415;-56
2022/04/15 06:32:40;0.00;0.00;0.62;0.00;0.00;0.62;2.43;2.10;;;25.90;24.10;;;;;;2262800;61;20509;-61
2022/04/15 06:35:24;0.00;0.00;0.62;0.00;0.00;0.62;2.57;2.03;;;25.90;24.10;;;;;;2261130;61;20505;-61
2022/04/15 06:38:10;0.00;0.00;0.62;0.00;0.00;0.62;3.03;2.00;;;25.90;24.00;;;;;;2264104;61;20799;-61
2022/04/15 06:40:55;0.00;0.00;0.62;0.00;0.00;0.62;2.23;1.97;;;25.80;23.90;;;;;;2263224;61;20388;-59
2022/04/15 06:43:39;0.00;0.00;0.62;0.00;0.00;0.62;2.37;1.80;;;25.80;24.00;;;;;;2264802;61;20908;-58
2022/04/15 06:46:24;0.00;0.00;0.62;0.00;0.00;0.62;2.37;1.70;;;25.80;24.00;;;;;;2263805;61;20363;-64
2022/04/15 06:49:08;0.00;0.00;0.62;0.00;0.00;0.62;2.43;1.40;;;25.80;24.00;;;;;;2263790;61;20410;-62
2022/04/15 06:51:53;0.00;0.00;0.62;0.00;0.00;0.62;2.90;1.90;;;25.80;24.00;;;;;;2264204;61;20912;-61
2022/04/15 06:54:40;0.00;0.00;0.62;0.00;0.00;0.62;3.03;2.20;;;25.80;24.00;;;;;;2260576;61;20865;-68
2022/04/15 06:57:25;0.00;0.00;0.62;0.00;0.00;0.62;2.33;1.90;;;25.80;24.00;;;;;;2265362;61;20364;-61
2022/04/15 07:00:11;0.00;0.00;0.62;0.00;0.00;0.62;2.60;1.77;;;25.80;24.00;;;;;;2261514;61;20395;-61
2022/04/15 07:02:56;0.00;0.00;0.62;0.00;0.00;0.62;2.37;1.87;;;25.70;23.90;;;;;;2258027;61;20355;-60
2022/04/15 07:05:40;0.00;0.00;0.62;0.00;0.00;0.62;2.00;1.50;;;25.70;24.50;;;;;;2265188;61;20421;-58
2022/04/15 07:08:25;0.00;0.00;0.62;0.00;0.00;0.62;1.80;1.60;;;25.70;24.00;;;;;;2264431;61;20511;-62
2022/04/15 07:11:13;0.00;0.00;0.62;0.00;0.00;0.62;2.20;2.00;;;25.70;24.00;;;;;;2264635;61;20467;-64
2022/04/15 07:13:57;0.00;0.00;0.62;0.00;0.00;0.62;1.80;1.37;;;25.70;24.00;;;;;;2264932;61;20400;-60
2022/04/15 07:16:42;0.00;0.00;0.62;0.00;0.00;0.62;2.17;1.97;;;25.70;24.00;;;;;;2264251;61;20355;-59
2022/04/15 07:19:27;0.00;0.00;0.62;0.00;0.00;0.62;3.10;2.17;;;25.70;24.00;;;;;;2264621;61;20446;-65
2022/04/15 07:22:15;0.00;0.00;0.62;0.00;0.00;0.62;2.00;1.73;;;25.70;24.00;;;;;;2265571;61;20671;-68
2022/04/15 07:25:00;0.00;0.00;0.62;0.00;0.00;0.62;2.23;1.83;;;25.70;24.00;;;;;;2264233;61;20388;-68
2022/04/15 07:27:46;0.00;0.00;0.62;0.00;0.00;0.62;2.63;1.70;;;25.70;24.10;;;;;;2265006;61;20490;-71
2022/04/15 07:30:30;0.00;0.00;0.62;0.00;0.00;0.62;2.00;1.50;;;25.70;24.00;;;;;;2265784;61;20726;-65
2022/04/15 07:33:16;0.00;0.00;0.62;0.00;0.00;0.62;2.27;1.50;;;25.70;24.10;;;;;;2259055;61;20904;-69
2022/04/15 07:36:03;0.00;0.00;0.62;0.00;0.00;0.62;2.07;1.57;;;25.60;24.10;;;;;;2265806;61;20778;-68
2022/04/15 07:38:48;0.00;0.00;0.62;0.00;0.00;0.62;1.80;1.40;;;25.60;24.10;;;;;;2261325;61;20360;-67
2022/04/15 07:41:33;0.00;0.00;0.62;0.00;0.00;0.62;1.70;1.33;;;25.60;24.20;;;;;;2261693;61;20465;-68
2022/04/15 07:44:19;0.00;0.00;0.62;0.00;0.00;0.62;2.00;1.80;;;25.60;24.20;;;;;;2265020;61;20364;-67
2022/04/15 07:47:07;0.00;0.00;0.62;0.00;0.00;0.62;2.03;1.53;;;25.60;24.20;;;;;;2264145;61;20396;-64
2022/04/15 07:49:52;0.00;0.00;0.62;0.00;0.00;0.62;1.70;1.60;;;25.60;24.20;;;;;;2262007;61;20396;-67
2022/04/15 07:52:37;0.00;0.00;0.62;0.00;0.00;0.62;1.80;1.53;;;25.60;24.20;;;;;;2265053;61;20383;-68
2022/04/15 07:55:21;0.00;0.00;0.62;0.00;0.00;0.62;2.00;1.50;;;25.60;24.20;;;;;;2264847;61;20360;-65
2022/04/15 07:58:06;0.00;0.00;0.62;0.00;0.00;0.62;2.67;2.17;;;25.60;24.20;;;;;;2265035;61;20449;-67
2022/04/15 08:00:52;0.00;0.00;0.62;0.00;0.00;0.62;2.07;1.53;;;25.60;24.20;;;;;;2261621;61;20449;-71
2022/04/15 08:03:37;0.00;0.00;0.62;0.00;0.00;0.62;2.30;1.70;;;25.60;24.30;;;;;;2265038;61;20410;-63
2022/04/15 08:06:24;0.00;0.00;0.62;0.00;0.00;0.62;2.37;1.97;;;25.60;24.30;;;;;;2264696;61;20360;-63
2022/04/15 08:09:08;0.00;0.00;0.62;0.00;0.00;0.62;2.27;1.80;;;25.60;24.30;;;;;;2263678;61;20899;-61
2022/04/15 08:11:54;0.00;0.00;0.62;0.00;0.00;0.62;2.50;1.73;;;25.60;24.30;;;;;;2264719;61;20936;-66
2022/04/15 08:14:39;0.00;0.00;0.62;0.00;0.00;0.62;2.27;1.70;;;25.60;24.40;;;;;;2264940;61;20867;-62
2022/04/15 08:17:25;0.00;0.00;0.62;0.00;0.00;0.62;3.20;1.70;;;25.60;24.30;;;;;;2264123;61;20372;-55
2022/04/15 08:20:10;0.00;0.00;0.62;0.00;0.00;0.62;2.20;1.43;;;25.60;24.30;;;;;;2264874;61;20359;-69
2022/04/15 08:22:55;0.00;0.00;0.62;0.00;0.00;0.62;2.27;1.77;;;25.60;24.30;;;;;;2264211;61;20392;-65
2022/04/15 08:25:40;0.00;0.00;0.62;0.00;0.00;0.62;2.57;1.70;;;25.60;24.30;;;;;;2261131;61;20379;-65
2022/04/15 08:28:25;0.00;0.00;0.62;0.00;0.00;0.62;3.30;1.80;;;25.60;24.40;;;;;;2264404;61;20383;-65
2022/04/15 08:31:09;0.00;0.00;0.62;0.00;0.00;0.62;2.20;1.60;;;25.60;24.30;;;;;;2263262;61;20379;-64
2022/04/15 08:33:55;0.00;0.00;0.62;0.00;0.00;0.62;1.93;1.73;;;25.60;24.30;;;;;;2264770;61;20891;-65
2022/04/15 08:36:40;0.00;0.00;0.62;0.00;0.00;0.62;2.37;1.97;;;25.60;24.30;;;;;;2265091;61;20506;-68
2022/04/15 08:39:24;0.00;0.00;0.62;0.00;0.00;0.62;2.87;2.07;;;25.70;24.30;;;;;;2263894;61;20379;-72
2022/04/15 08:42:09;0.00;0.00;0.62;0.00;0.00;0.62;2.83;2.30;;;25.60;24.20;;;;;;2265117;61;20380;-70
2022/04/15 08:44:56;0.00;0.00;0.62;0.00;0.00;0.62;2.27;2.00;;;25.60;24.20;;;;;;2265235;61;20675;-63
2022/04/15 08:47:41;0.00;0.00;0.62;0.00;0.00;0.62;2.87;2.23;;;25.60;24.20;;;;;;2266805;61;20441;-63
2022/04/15 08:50:29;0.00;0.00;0.62;0.00;0.00;0.62;2.20;2.00;;;25.60;24.20;;;;;;2264963;61;21034;-68
2022/04/15 08:53:14;0.00;0.00;0.62;0.00;0.00;0.62;2.50;2.17;;;25.60;24.30;;;;;;2265083;61;20808;-65
2022/04/15 08:56:00;0.00;0.00;0.62;0.00;0.00;0.62;2.10;1.90;;;25.60;24.30;;;;;;2262970;61;20368;-73
2022/04/15 08:58:46;0.00;0.00;0.62;0.00;0.00;0.62;2.10;1.90;;;25.60;24.30;;;;;;2265204;61;20410;-66
2022/04/15 09:01:32;0.00;0.00;0.62;0.00;0.00;0.62;3.40;2.50;;;25.60;24.40;;;;;;2263869;61;20784;-65
2022/04/15 09:04:19;0.00;0.00;0.62;0.00;0.00;0.62;3.30;2.77;;;25.60;24.40;;;;;;2265271;61;20414;-66
2022/04/15 09:07:05;0.00;0.00;0.62;0.00;0.00;0.62;2.50;2.17;;;25.70;24.40;;;;;;2264565;61;20864;-64
2022/04/15 09:09:56;0.00;0.00;0.62;0.00;0.00;0.62;2.43;2.23;;;25.70;24.40;;;;;;2264322;61;20384;-68
2022/04/15 09:12:42;0.00;0.00;0.62;0.00;0.00;0.62;2.43;2.17;;;25.70;24.40;;;;;;2264853;61;20434;-65
2022/04/15 09:15:27;0.00;0.00;0.62;0.00;0.00;0.62;2.60;2.40;;;25.70;24.50;;;;;;2260494;61;20710;-70
2022/04/15 09:18:27;0.00;0.00;0.62;0.00;0.00;0.62;2.27;2.00;;;25.70;24.50;;;;;;2264699;61;20835;-65
2022/04/15 09:21:17;0.00;0.00;0.62;0.00;0.00;0.62;2.60;2.40;;;25.70;24.50;;;;;;2264784;61;20380;-64
2022/04/15 09:24:04;0.00;0.00;0.62;0.00;0.00;0.62;2.50;2.27;;;25.70;24.40;;;;;;2260784;61;20392;-65
2022/04/15 09:26:53;0.00;0.00;0.62;0.00;0.00;0.62;3.00;2.37;;;25.70;24.40;;;;;;2264223;61;20364;-65
2022/04/15 09:29:40;0.00;0.00;0.62;0.00;0.00;0.62;3.03;2.40;;;25.70;24.40;;;;;;2263280;61;20388;-62
2022/04/15 09:32:25;0.00;0.00;0.62;0.00;0.00;0.62;2.50;2.17;;;25.70;24.40;;;;;;2264651;61;20399;-66
2022/04/15 09:35:16;0.00;0.00;0.62;0.00;0.00;0.62;2.27;2.07;;;25.70;24.40;;;;;;2264752;61;20400;-61
2022/04/15 09:38:03;0.00;0.00;0.62;0.00;0.00;0.62;4.40;2.30;;;25.70;24.40;;;;;;2263333;61;20452;-60
2022/04/15 09:40:49;0.00;0.00;0.62;0.00;0.00;0.62;2.23;2.00;;;25.70;24.40;;;;;;2261451;61;20360;-57
2022/04/15 09:43:47;0.00;0.00;0.62;0.00;0.00;0.62;2.10;1.90;;;25.80;24.50;;;;;;2264674;61;20404;-57
2022/04/15 09:46:32;0.00;0.00;0.62;0.00;0.00;0.62;2.17;1.97;;;25.80;24.50;;;;;;2264383;61;20360;-60
2022/04/15 09:49:18;0.00;0.00;0.62;0.00;0.00;0.62;2.67;2.17;;;25.80;24.50;;;;;;2260779;61;20395;-59
2022/04/15 09:52:04;0.00;0.00;0.62;0.00;0.00;0.62;2.00;1.53;;;25.80;24.50;;;;;;2263556;61;20446;-63
2022/04/15 09:54:50;0.00;0.00;0.62;0.00;0.00;0.62;2.03;1.60;;;25.80;24.50;;;;;;2264808;61;20395;-67
2022/04/15 09:57:36;0.00;0.00;0.62;0.00;0.00;0.62;2.57;1.90;;;25.90;24.60;;;;;;2264612;61;20396;-62
2022/04/15 10:00:21;0.00;0.00;0.62;0.00;0.00;0.62;3.30;2.33;;;25.90;24.60;;;;;;2263316;61;20365;-63
2022/04/15 10:03:08;0.00;0.00;0.62;0.00;0.00;0.62;2.67;2.30;;;25.90;24.60;;;;;;2264484;61;20372;-63
2022/04/15 10:05:55;0.00;0.00;0.62;0.00;0.00;0.62;6.13;2.20;;;25.90;24.60;;;;;;2264383;61;20360;-66
2022/04/15 10:08:42;0.00;0.00;0.62;0.00;0.00;0.62;2.60;2.40;;;25.90;24.60;;;;;;2263604;61;20927;-65
2022/04/15 10:11:27;0.00;0.00;0.62;0.00;0.00;0.62;4.53;2.00;;;26.00;24.60;;;;;;2264605;61;20383;-61
2022/04/15 10:14:16;0.00;0.00;0.62;0.00;0.00;0.62;2.87;2.40;;;26.00;24.60;;;;;;2263651;61;20932;-61
2022/04/15 10:17:01;0.00;0.00;0.62;0.00;0.00;0.62;2.47;1.73;;;26.00;24.60;;;;;;2264354;61;20368;-62
2022/04/15 10:19:46;0.00;0.00;0.62;0.00;0.00;0.62;2.13;1.87;;;26.00;24.60;;;;;;2264097;61;20908;-64
2022/04/15 10:22:32;0.00;0.00;0.62;0.00;0.00;0.62;2.80;1.83;;;26.00;24.60;;;;;;2263433;61;20419;-63
2022/04/15 10:25:17;0.00;0.00;0.62;0.00;0.00;0.62;2.10;1.90;;;26.00;24.60;;;;;;2264573;61;20402;-63
2022/04/15 10:28:06;0.00;0.00;0.62;0.00;0.00;0.62;2.73;1.93;;;26.10;25.20;;;;;;2258266;61;20387;-63
2022/04/15 10:31:07;0.00;0.00;0.62;0.00;0.00;0.62;2.93;2.10;;;26.10;24.60;;;;;;2264475;61;20542;-62
2022/04/15 10:33:52;0.00;0.00;0.62;0.00;0.00;0.62;2.53;2.13;;;26.10;24.60;;;;;;2265240;61;20403;-63
2022/04/15 10:36:39;0.00;0.00;0.62;0.00;0.00;0.62;2.87;1.77;;;26.10;24.60;;;;;;2264206;61;20379;-63
2022/04/15 10:39:25;0.00;0.00;0.62;0.00;0.00;0.62;3.53;2.17;;;26.10;24.50;;;;;;2264600;61;20360;-63
2022/04/15 10:42:17;0.00;0.00;0.62;0.00;0.00;0.62;2.43;1.87;;;26.10;24.50;;;;;;2265424;61;21087;-61
2022/04/15 10:45:02;0.00;0.00;0.62;0.00;0.00;0.62;2.43;1.70;;;26.10;24.50;;;;;;2264154;61;20365;-62
2022/04/15 10:47:58;0.00;0.00;0.62;0.00;0.00;0.62;1.90;1.40;;;26.20;24.50;;;;;;2265090;61;20884;-62
2022/04/15 10:50:43;0.00;0.00;0.62;0.00;0.00;0.62;1.67;1.53;;;26.10;24.50;;;;;;2264456;61;20817;-63
2022/04/15 10:53:31;0.00;0.00;0.62;0.00;0.00;0.62;2.37;1.70;;;26.20;24.50;;;;;;2264865;61;20440;-61